Time;durP1;ratioP1;P1;durP2;ratioP2;P2;SDS_P1;SDS_P2;PMS_P1;PMS_P2;Temp;Humidity;BMP_temperature;BMP_pressure;BME280_temperature;BME280_humidity;BME280_pressure;Samples;Min_cycle;Max_cycle;Signal;HPM_P1;HPM_P2
2023/03/30 00:02:21;;;;;;;1999.90;999.90;;;11.30;99.90;;;;;;5060864;28;20048;-71
2023/03/30 00:04:51;;;;;;;1999.90;999.90;;;11.30;99.90;;;;;;5065244;28;20032;-71
2023/03/30 00:07:17;;;;;;;1999.90;999.90;;;11.30;99.90;;;;;;5044810;28;20040;-70
2023/03/30 00:09:43;;;;;;;1999.90;999.90;;;11.30;99.90;;;;;;5061045;28;20047;-70
2023/03/30 00:12:19;;;;;;;1999.90;999.90;;;11.30;99.90;;;;;;5060964;28;20048;-70
2023/03/30 00:14:45;;;;;;;1999.90;999.90;;;11.30;99.90;;;;;;5064540;28;20504;-70
2023/03/30 00:17:11;;;;;;;1999.90;999.90;;;11.40;99.90;;;;;;5053809;28;20097;-70
2023/03/30 00:19:37;;;;;;;1999.90;999.90;;;11.40;99.90;;;;;;5063286;28;20040;-71
2023/03/30 00:22:08;;;;;;;1999.90;999.90;;;11.50;99.90;;;;;;5060652;28;20413;-69
2023/03/30 00:24:35;;;;;;;1999.90;999.90;;;11.60;99.90;;;;;;5062504;28;20048;-70
2023/03/30 00:27:02;;;;;;;1999.90;999.90;;;11.70;99.90;;;;;;5046198;28;20042;-70
2023/03/30 00:29:27;;;;;;;1999.90;999.90;;;11.80;99.90;;;;;;5062296;28;20040;-70
2023/03/30 00:31:53;;;;;;;1999.90;999.90;;;11.80;99.90;;;;;;5044821;28;20431;-70
2023/03/30 00:34:19;;;;;;;1999.90;999.90;;;11.90;99.90;;;;;;5064839;28;20075;-69
2023/03/30 00:36:45;;;;;;;1999.90;999.90;;;11.90;99.90;;;;;;5055503;28;20048;-70
2023/03/30 00:39:12;;;;;;;1999.90;999.90;;;11.90;99.90;;;;;;5046681;28;20036;-70
2023/03/30 00:41:38;;;;;;;1999.90;999.90;;;12.00;99.90;;;;;;5061057;28;20691;-70
2023/03/30 00:44:08;;;;;;;1999.90;999.90;;;11.90;99.90;;;;;;5062752;28;20400;-69
2023/03/30 00:46:34;;;;;;;1999.90;999.90;;;11.90;99.90;;;;;;5059608;28;20746;-69
2023/03/30 00:49:04;;;;;;;1999.90;999.90;;;11.90;99.90;;;;;;5062670;28;20079;-69
2023/03/30 00:51:33;;;;;;;1999.90;999.90;;;12.00;99.90;;;;;;5062969;28;20043;-70
2023/03/30 00:54:06;;;;;;;1999.90;999.90;;;12.00;99.90;;;;;;5058772;28;20048;-70
2023/03/30 00:56:32;;;;;;;1999.90;999.90;;;12.00;99.90;;;;;;5060071;28;20044;-70
2023/03/30 00:59:00;;;;;;;1999.90;999.90;;;11.90;99.90;;;;;;5061910;28;20043;-70
2023/03/30 01:01:27;;;;;;;1999.90;999.90;;;11.90;99.90;;;;;;5043921;28;20543;-70
2023/03/30 01:03:56;;;;;;;1999.90;999.90;;;11.90;99.90;;;;;;5045289;28;20089;-70
2023/03/30 01:06:23;;;;;;;1999.90;999.90;;;11.90;99.90;;;;;;5061065;28;20051;-70
2023/03/30 01:08:53;;;;;;;1999.90;999.90;;;11.90;99.90;;;;;;5061880;28;20133;-70
2023/03/30 01:11:20;;;;;;;1999.90;999.90;;;11.90;99.90;;;;;;5055454;28;20048;-70
2023/03/30 01:13:51;;;;;;;1999.90;999.90;;;11.90;99.90;;;;;;5060125;28;20093;-69
2023/03/30 01:16:34;;;;;;;1999.90;999.90;;;11.80;99.90;;;;;;5062296;28;20486;-69
2023/03/30 01:19:30;;;;;;;1999.90;999.90;;;11.80;99.90;;;;;;5047021;28;20044;-69
2023/03/30 01:22:07;;;;;;;1999.90;999.90;;;11.90;99.90;;;;;;5044052;28;20052;-70
2023/03/30 01:24:52;;;;;;;1999.90;999.90;;;11.80;99.90;;;;;;5066120;28;20041;-69
2023/03/30 01:27:20;;;;;;;1999.90;999.90;;;11.80;99.90;;;;;;5065743;28;20507;-70
2023/03/30 01:30:13;;;;;;;1999.90;999.90;;;11.80;99.90;;;;;;5058812;28;20050;-70
2023/03/30 01:32:52;;;;;;;1999.90;999.90;;;11.80;99.90;;;;;;5066604;28;20404;-70
2023/03/30 01:35:56;;;;;;;1999.90;999.90;;;11.80;99.90;;;;;;5062100;28;20032;-70
2023/03/30 01:38:41;;;;;;;1999.90;999.90;;;11.80;99.90;;;;;;5065324;28;20556;-69
2023/03/30 01:41:29;;;;;;;1999.90;999.90;;;11.80;99.90;;;;;;5047416;28;20370;-70
2023/03/30 01:44:07;;;;;;;1999.90;999.90;;;11.80;99.90;;;;;;5065111;28;20052;-70
2023/03/30 01:46:41;;;;;;;1999.90;999.90;;;11.80;99.90;;;;;;5074747;28;20041;-70
2023/03/30 01:49:21;;;;;;;1999.90;999.90;;;11.80;99.90;;;;;;5056357;28;20041;-70
2023/03/30 01:52:00;;;;;;;1999.90;999.90;;;11.80;99.90;;;;;;5077422;28;20373;-69
2023/03/30 01:54:33;;;;;;;1999.90;999.90;;;11.80;99.90;;;;;;5066946;28;20117;-70
2023/03/30 01:57:08;;;;;;;1999.90;999.90;;;11.80;99.90;;;;;;5062958;28;20047;-70
2023/03/30 01:59:40;;;;;;;1999.90;999.90;;;11.80;99.90;;;;;;5050327;28;20374;-70
2023/03/30 02:02:08;;;;;;;1999.90;999.90;;;11.80;99.90;;;;;;5065042;28;20591;-70
2023/03/30 02:04:38;;;;;;;1999.90;999.90;;;11.90;99.90;;;;;;5055819;28;20075;-70
2023/03/30 02:07:13;;;;;;;1999.90;999.90;;;11.90;99.90;;;;;;5066827;28;20181;-70
2023/03/30 02:09:40;;;;;;;1999.90;999.90;;;11.90;99.90;;;;;;5049204;28;20453;-70
2023/03/30 02:12:09;;;;;;;1999.90;999.90;;;11.90;99.90;;;;;;5064830;28;20044;-69
2023/03/30 02:14:37;;;;;;;1999.90;999.90;;;11.90;99.90;;;;;;5064245;28;20396;-70
2023/03/30 02:17:12;;;;;;;1999.90;999.90;;;11.90;99.90;;;;;;5061740;28;20501;-70
2023/03/30 02:19:38;;;;;;;1999.90;999.90;;;12.00;99.90;;;;;;5061540;28;20119;-69
2023/03/30 02:22:05;;;;;;;1999.90;999.90;;;12.00;99.90;;;;;;5059741;28;20052;-70
2023/03/30 02:24:32;;;;;;;1999.90;999.90;;;12.10;99.90;;;;;;5046915;28;20088;-70
2023/03/30 02:27:03;;;;;;;1999.90;999.90;;;12.10;99.90;;;;;;5065682;28;20668;-69
2023/03/30 02:29:32;;;;;;;1999.90;999.90;;;12.10;99.90;;;;;;5058848;28;20611;-69
2023/03/30 02:31:59;;;;;;;1999.90;999.90;;;12.00;99.90;;;;;;5064456;28;20516;-69
2023/03/30 02:34:54;;;;;;;1999.90;999.90;;;12.00;99.90;;;;;;5063760;28;20384;-69
2023/03/30 02:37:37;;;;;;;1999.90;999.90;;;11.90;99.90;;;;;;5060704;28;20107;-69
2023/03/30 02:40:12;;;;;;;1999.90;999.90;;;11.90;99.90;;;;;;5063127;28;20041;-70
2023/03/30 02:42:50;;;;;;;;;;;11.80;99.90;;;;;;5065338;28;20151;-69
2023/03/30 02:45:47;;;;;;;1999.90;999.90;;;11.90;99.90;;;;;;5062370;28;19920;-70
2023/03/30 02:48:26;;;;;;;1999.90;999.90;;;12.00;99.90;;;;;;5064455;28;20046;-69
2023/03/30 02:51:05;;;;;;;1999.90;999.90;;;12.10;99.90;;;;;;5061198;28;20051;-70
2023/03/30 02:53:44;;;;;;;1999.90;999.90;;;12.10;99.90;;;;;;5062971;28;20044;-69
2023/03/30 02:56:18;;;;;;;1999.90;999.90;;;12.10;99.90;;;;;;5041260;28;20535;-69
2023/03/30 02:58:48;;;;;;;1999.90;999.90;;;12.20;99.90;;;;;;5062079;28;20487;-70
2023/03/30 03:01:47;;;;;;;1999.90;999.90;;;12.20;99.90;;;;;;5058809;28;20762;-70
2023/03/30 03:04:14;;;;;;;1999.90;999.90;;;12.30;99.90;;;;;;5062136;28;20048;-69
2023/03/30 03:06:41;;;;;;;1999.90;999.90;;;12.40;99.90;;;;;;5060785;28;20141;-69
2023/03/30 03:09:07;;;;;;;1999.90;999.90;;;12.50;99.90;;;;;;5048021;28;20036;-70
2023/03/30 03:11:33;;;;;;;1999.90;999.90;;;12.60;99.90;;;;;;5060426;28;20044;-69
2023/03/30 03:13:59;;;;;;;1999.90;999.90;;;12.60;99.90;;;;;;5061170;28;20036;-69
2023/03/30 03:16:25;;;;;;;1999.90;999.90;;;12.70;99.90;;;;;;5049818;28;20110;-70
2023/03/30 03:18:51;;;;;;;1999.90;999.90;;;12.60;99.90;;;;;;5065351;28;20498;-70
2023/03/30 03:21:17;;;;;;;1999.90;999.90;;;12.50;99.90;;;;;;5062665;28;20128;-69
2023/03/30 03:23:43;;;;;;;1999.90;999.90;;;12.50;99.90;;;;;;5046553;28;20085;-69
2023/03/30 03:26:10;;;;;;;1999.90;999.90;;;12.40;99.90;;;;;;5047893;28;20044;-69
2023/03/30 03:28:36;;;;;;;1999.90;999.90;;;12.30;99.90;;;;;;5056303;28;20048;-70
2023/03/30 03:31:02;;;;;;;1999.90;999.90;;;12.20;99.90;;;;;;5062861;28;20039;-69
2023/03/30 03:33:30;;;;;;;1999.90;999.90;;;12.10;99.90;;;;;;5065480;28;20082;-70
2023/03/30 03:35:58;;;;;;;1999.90;999.90;;;12.10;99.90;;;;;;5061686;28;20050;-69
2023/03/30 03:38:25;;;;;;;1999.90;999.90;;;12.10;99.90;;;;;;5063815;28;20211;-70
2023/03/30 03:40:52;;;;;;;1999.90;999.90;;;12.10;99.90;;;;;;5047106;28;20583;-69
2023/03/30 03:43:18;;;;;;;1999.90;999.90;;;12.10;99.90;;;;;;5065586;28;20042;-70
2023/03/30 03:45:48;;;;;;;1999.90;999.90;;;12.20;99.90;;;;;;5039904;28;20041;-69
2023/03/30 03:48:15;;;;;;;1999.90;999.90;;;12.30;99.90;;;;;;5062244;28;20083;-70
2023/03/30 03:50:41;;;;;;;1999.90;999.90;;;12.30;99.90;;;;;;5043887;28;20037;-69
2023/03/30 03:53:08;;;;;;;1999.90;999.90;;;12.40;99.90;;;;;;5048454;28;20120;-69
2023/03/30 03:55:34;;;;;;;1999.90;999.90;;;12.40;99.90;;;;;;5063434;28;20044;-69
2023/03/30 03:58:03;;;;;;;1999.90;999.90;;;12.40;99.90;;;;;;5062279;28;20045;-69
2023/03/30 04:00:29;;;;;;;1999.90;999.90;;;12.40;99.90;;;;;;5064629;28;20802;-70
2023/03/30 04:02:55;;;;;;;1999.90;999.90;;;12.40;99.90;;;;;;5044205;28;20040;-70
2023/03/30 04:05:22;;;;;;;1999.90;999.90;;;12.30;99.90;;;;;;5060406;28;20036;-70
2023/03/30 04:07:47;;;;;;;1999.90;999.90;;;12.30;99.90;;;;;;5046915;28;20052;-69
2023/03/30 04:10:14;;;;;;;1999.90;999.90;;;12.30;99.90;;;;;;5063205;28;20533;-70
2023/03/30 04:12:40;;;;;;;1999.90;999.90;;;12.30;99.90;;;;;;5061368;28;20044;-70
2023/03/30 04:15:06;;;;;;;1999.90;999.90;;;12.20;99.90;;;;;;5062834;28;20055;-70
2023/03/30 04:17:32;;;;;;;1999.90;999.90;;;12.20;99.90;;;;;;5046485;28;20036;-70
2023/03/30 04:20:10;;;;;;;1999.90;999.90;;;12.20;99.90;;;;;;5053852;28;20046;-70
2023/03/30 04:22:42;;;;;;;1999.90;999.90;;;12.20;99.90;;;;;;5058731;28;20746;-70
2023/03/30 04:25:10;;;;;;;1999.90;999.90;;;12.20;99.90;;;;;;5045195;28;20385;-70
2023/03/30 04:27:36;;;;;;;1999.90;999.90;;;12.20;99.90;;;;;;5046564;28;20047;-71
2023/03/30 04:30:06;;;;;;;1999.90;999.90;;;12.20;99.90;;;;;;5062748;28;20061;-71
2023/03/30 04:32:33;;;;;;;1999.90;999.90;;;12.20;99.90;;;;;;5062937;28;20041;-70
2023/03/30 04:35:00;;;;;;;1999.90;999.90;;;12.20;99.90;;;;;;5060056;28;20036;-70
2023/03/30 04:37:29;;;;;;;1999.90;999.90;;;12.10;99.90;;;;;;5059286;28;20041;-70
2023/03/30 04:40:06;;;;;;;1999.90;999.90;;;12.10;99.90;;;;;;5064702;28;20420;-70
2023/03/30 04:42:33;;;;;;;1999.90;999.90;;;12.10;99.90;;;;;;5063234;28;20496;-70
2023/03/30 04:45:06;;;;;;;1999.90;999.90;;;12.10;99.90;;;;;;5064163;28;20051;-70
2023/03/30 04:47:32;;;;;;;1999.90;999.90;;;12.20;99.90;;;;;;5061498;28;20508;-70
2023/03/30 04:49:58;;;;;;;1999.90;999.90;;;12.20;99.90;;;;;;5045344;28;20094;-70
2023/03/30 04:52:24;;;;;;;1999.90;999.90;;;12.30;99.90;;;;;;5045356;28;20076;-70
2023/03/30 04:54:50;;;;;;;1999.90;999.90;;;12.30;99.90;;;;;;5044746;28;20047;-70
2023/03/30 04:57:16;;;;;;;1999.90;999.90;;;12.30;99.90;;;;;;5058577;28;20037;-70
2023/03/30 04:59:43;;;;;;;1999.90;999.90;;;12.30;99.90;;;;;;5050739;28;20556;-70
2023/03/30 05:02:10;;;;;;;1999.90;999.90;;;12.40;99.90;;;;;;5048198;28;20051;-70
2023/03/30 05:04:36;;;;;;;1999.90;999.90;;;12.40;99.90;;;;;;5051436;28;20483;-70
2023/03/30 05:07:02;;;;;;;1999.90;999.90;;;12.40;99.90;;;;;;5064758;28;20091;-70
2023/03/30 05:09:28;;;;;;;1999.90;999.90;;;12.40;99.90;;;;;;5080341;28;20076;-71
2023/03/30 05:11:53;;;;;;;1999.90;999.90;;;12.40;99.90;;;;;;5066011;28;20059;-70
2023/03/30 05:14:19;;;;;;;1999.90;999.90;;;12.50;99.90;;;;;;5049143;28;20072;-71
2023/03/30 05:16:45;;;;;;;1999.90;999.90;;;12.50;99.90;;;;;;5062640;28;20075;-71
2023/03/30 05:19:11;;;;;;;1999.90;999.90;;;12.50;99.90;;;;;;5060351;28;20039;-70
2023/03/30 05:21:36;;;;;;;1999.90;999.90;;;12.60;99.90;;;;;;5058995;28;20101;-70
2023/03/30 05:24:02;;;;;;;1999.90;999.90;;;12.60;99.90;;;;;;5063252;28;20059;-71
2023/03/30 05:26:28;;;;;;;1999.90;999.90;;;12.60;99.90;;;;;;5061765;28;20134;-70
2023/03/30 05:28:53;;;;;;;1999.90;999.90;;;12.60;99.90;;;;;;5066160;28;20050;-70
2023/03/30 05:31:20;;;;;;;1999.90;999.90;;;12.60;99.90;;;;;;5065113;28;20557;-70
2023/03/30 05:33:46;;;;;;;1999.90;999.90;;;12.70;99.90;;;;;;5069431;28;20040;-70
2023/03/30 05:36:12;;;;;;;1999.90;999.90;;;12.70;99.90;;;;;;5057921;28;20045;-70
2023/03/30 05:38:37;;;;;;;1999.90;999.90;;;12.60;99.90;;;;;;5064534;28;20465;-71
2023/03/30 05:41:04;;;;;;;1999.90;999.90;;;12.60;99.90;;;;;;5050177;28;20120;-70
2023/03/30 05:43:30;;;;;;;1999.90;999.90;;;12.60;99.90;;;;;;5066067;28;20048;-70
2023/03/30 05:45:56;;;;;;;1999.90;999.90;;;12.60;99.90;;;;;;5068072;28;20814;-71
2023/03/30 05:48:22;;;;;;;1999.90;999.90;;;12.60;99.90;;;;;;5065944;28;20363;-70
2023/03/30 05:50:48;;;;;;;1999.90;999.90;;;12.60;99.90;;;;;;5067453;28;20040;-70
2023/03/30 05:53:14;;;;;;;1999.90;999.90;;;12.60;99.90;;;;;;5060228;28;20043;-70
2023/03/30 05:55:43;;;;;;;1999.90;999.90;;;12.60;99.90;;;;;;5046040;28;20041;-70
2023/03/30 05:58:08;;;;;;;1999.90;999.90;;;12.60;99.90;;;;;;5060585;28;20053;-70
2023/03/30 06:00:35;;;;;;;1999.90;999.90;;;12.60;99.90;;;;;;5061953;28;20043;-70
2023/03/30 06:03:03;;;;;;;1999.90;999.90;;;12.60;99.90;;;;;;5064710;28;20041;-70
2023/03/30 06:05:29;;;;;;;1999.90;999.90;;;12.60;99.90;;;;;;5066422;28;20052;-70
2023/03/30 06:07:55;;;;;;;1999.90;999.90;;;12.60;99.90;;;;;;5048246;28;20135;-70
2023/03/30 06:10:21;;;;;;;1999.90;999.90;;;12.60;99.90;;;;;;5063975;28;20201;-70
2023/03/30 06:12:47;;;;;;;1999.90;999.90;;;12.70;99.90;;;;;;5065314;28;20055;-70
2023/03/30 06:15:12;;;;;;;1999.90;999.90;;;12.70;99.90;;;;;;5066999;28;20040;-70
2023/03/30 06:17:38;;;;;;;1999.90;999.90;;;12.70;99.90;;;;;;5065965;28;20110;-70
2023/03/30 06:20:11;;;;;;;1999.90;999.90;;;12.70;99.90;;;;;;5049630;28;20044;-70
2023/03/30 06:22:43;;;;;;;1999.90;999.90;;;12.70;99.90;;;;;;5062730;28;20083;-70
2023/03/30 06:25:09;;;;;;;1999.90;999.90;;;12.70;99.90;;;;;;5066670;28;20124;-71
2023/03/30 06:27:35;;;;;;;1999.90;999.90;;;12.70;99.90;;;;;;5043909;28;20045;-70
2023/03/30 06:30:01;;;;;;;1999.90;999.90;;;12.70;99.90;;;;;;5061444;28;20651;-71
2023/03/30 06:32:27;;;;;;;1999.90;999.90;;;12.70;99.90;;;;;;5064368;28;20408;-71
2023/03/30 06:34:52;;;;;;;1999.90;999.90;;;12.70;99.90;;;;;;5064698;28;20040;-70
2023/03/30 06:37:19;;;;;;;1999.90;999.90;;;12.70;99.90;;;;;;5044135;28;20043;-70
2023/03/30 06:39:45;;;;;;;1999.90;999.90;;;12.70;99.90;;;;;;5062210;28;20126;-70
2023/03/30 06:42:10;;;;;;;1999.90;999.90;;;12.70;99.90;;;;;;5064646;28;20075;-71
2023/03/30 06:44:36;;;;;;;1999.90;999.90;;;12.70;99.90;;;;;;5064827;28;20560;-70
2023/03/30 06:47:04;;;;;;;1999.90;999.90;;;12.70;99.90;;;;;;5049087;28;20040;-70
2023/03/30 06:49:30;;;;;;;1999.90;999.90;;;12.80;99.90;;;;;;5057130;28;20040;-70
2023/03/30 06:51:56;;;;;;;1999.90;999.90;;;12.90;99.90;;;;;;5062211;28;20037;-70
2023/03/30 06:54:21;;;;;;;1999.90;999.90;;;12.90;99.90;;;;;;5059528;28;20067;-70
2023/03/30 06:56:48;;;;;;;1999.90;999.90;;;12.90;99.90;;;;;;5066334;28;20935;-70
2023/03/30 06:59:15;;;;;;;1999.90;999.90;;;13.00;99.90;;;;;;5063841;28;20456;-70
2023/03/30 07:01:41;;;;;;;1999.90;999.90;;;13.00;99.90;;;;;;5047099;28;20094;-70
2023/03/30 07:04:07;;;;;;;1999.90;999.90;;;13.00;99.90;;;;;;5047462;28;20044;-70
2023/03/30 07:06:33;;;;;;;1999.90;999.90;;;13.00;99.90;;;;;;5047962;28;20407;-70
2023/03/30 07:08:59;;;;;;;1999.90;999.90;;;13.00;99.90;;;;;;5046683;28;20036;-70
2023/03/30 07:11:25;;;;;;;1999.90;999.90;;;13.10;99.90;;;;;;5061177;28;20496;-70
2023/03/30 07:13:53;;;;;;;1999.90;999.90;;;13.10;99.90;;;;;;5062272;28;20040;-70
2023/03/30 07:16:19;;;;;;;1999.90;999.90;;;13.10;99.90;;;;;;5062625;28;20037;-70
2023/03/30 07:18:44;;;;;;;1999.90;999.90;;;13.10;99.90;;;;;;5067001;28;20519;-70
2023/03/30 07:21:10;;;;;;;1999.90;999.90;;;13.10;99.90;;;;;;5045926;28;20056;-70
2023/03/30 07:23:35;;;;;;;1999.90;999.90;;;13.10;99.90;;;;;;5039235;28;20032;-71
2023/03/30 07:26:01;;;;;;;1999.90;999.90;;;13.00;99.90;;;;;;5064993;28;20868;-71
2023/03/30 07:28:27;;;;;;;1999.90;999.90;;;12.90;99.90;;;;;;5066006;28;20396;-70
2023/03/30 07:30:52;;;;;;;1999.90;999.90;;;12.90;99.90;;;;;;5076258;28;20408;-70
2023/03/30 07:33:18;;;;;;;1999.90;999.90;;;12.80;99.90;;;;;;5065243;28;20277;-71
2023/03/30 07:35:45;;;;;;;1999.90;999.90;;;12.80;99.90;;;;;;5065467;28;20033;-69
2023/03/30 07:38:13;;;;;;;1999.90;999.90;;;12.80;99.90;;;;;;5047181;28;20049;-70
2023/03/30 07:40:39;;;;;;;1999.90;999.90;;;12.80;99.90;;;;;;5059540;28;20102;-70
2023/03/30 07:43:06;;;;;;;1999.90;999.90;;;12.80;99.90;;;;;;5065420;28;20052;-70
2023/03/30 07:45:32;;;;;;;1999.90;999.90;;;12.70;99.90;;;;;;5063954;28;20040;-70
2023/03/30 07:47:58;;;;;;;1999.90;999.90;;;12.60;99.90;;;;;;5065205;28;20048;-71
2023/03/30 07:50:24;;;;;;;1999.90;999.90;;;12.50;99.90;;;;;;5065401;28;20040;-70
2023/03/30 07:52:51;;;;;;;1999.90;999.90;;;12.50;99.90;;;;;;5040697;28;20158;-70
2023/03/30 07:55:17;;;;;;;1999.90;999.90;;;12.40;99.90;;;;;;5056063;28;20040;-70
2023/03/30 07:57:43;;;;;;;1999.90;999.90;;;12.40;99.90;;;;;;5058300;28;20392;-70
2023/03/30 08:00:09;;;;;;;1999.90;999.90;;;12.40;99.90;;;;;;5063402;28;20036;-70
2023/03/30 08:02:36;;;;;;;1999.90;999.90;;;12.40;99.90;;;;;;5062943;28;20498;-70
2023/03/30 08:05:02;;;;;;;1999.90;999.90;;;12.30;99.90;;;;;;5047797;28;20048;-70
2023/03/30 08:07:29;;;;;;;1999.90;999.90;;;12.30;99.90;;;;;;5044448;28;20087;-70
2023/03/30 08:09:55;;;;;;;1999.90;999.90;;;12.20;99.90;;;;;;5058085;28;20055;-70
2023/03/30 08:12:21;;;;;;;1999.90;999.90;;;12.20;99.90;;;;;;5054472;28;20132;-70
2023/03/30 08:14:46;;;;;;;1999.90;999.90;;;12.20;99.90;;;;;;5046051;28;20119;-70
2023/03/30 08:17:12;;;;;;;1999.90;999.90;;;12.20;99.90;;;;;;5062103;28;20120;-70
2023/03/30 08:19:38;;;;;;;1999.90;999.90;;;12.20;99.90;;;;;;5059846;28;20109;-70
2023/03/30 08:29:24;;;;;;;1999.90;999.90;;;12.20;99.90;;;;;;5063113;28;20487;-70
2023/03/30 08:31:51;;;;;;;1999.90;999.90;;;12.10;99.90;;;;;;5063238;28;20064;-71
2023/03/30 08:34:17;;;;;;;1999.90;999.90;;;12.10;99.90;;;;;;5063633;28;20082;-70
2023/03/30 08:36:42;;;;;;;1999.90;999.90;;;12.10;99.90;;;;;;5058856;28;20450;-70
2023/03/30 08:39:09;;;;;;;1999.90;999.90;;;12.10;99.90;;;;;;5062716;28;20036;-70
2023/03/30 08:41:38;;;;;;;1999.90;999.90;;;12.10;99.90;;;;;;5056424;28;20483;-70
2023/03/30 08:44:11;;;;;;;1999.90;999.90;;;12.00;99.90;;;;;;5045917;28;20136;-70
2023/03/30 08:46:37;;;;;;;1999.90;999.90;;;12.10;99.90;;;;;;5062233;28;20040;-70
2023/03/30 08:49:13;;;;;;;1999.90;999.90;;;12.10;99.90;;;;;;5060753;28;20083;-70
2023/03/30 08:51:41;;;;;;;1999.90;999.90;;;12.30;99.90;;;;;;5055503;28;20131;-70
2023/03/30 08:54:12;;;;;;;1999.90;999.90;;;12.40;99.90;;;;;;5059810;28;20088;-70
2023/03/30 08:57:03;;;;;;;1999.90;999.90;;;12.50;99.90;;;;;;5064681;28;20094;-70
2023/03/30 08:59:40;;;;;;;1999.90;999.90;;;12.60;99.90;;;;;;5003950;28;20412;-71
2023/03/30 09:02:28;;;;;;;1999.90;999.90;;;12.80;99.90;;;;;;5061210;28;20429;-70
2023/03/30 09:05:35;;;;;;;1999.90;999.90;;;12.90;99.90;;;;;;5045126;28;20037;-71
2023/03/30 09:08:19;;;;;;;1999.90;999.90;;;13.10;99.90;;;;;;4970926;28;20611;-71
2023/03/30 09:11:11;;;;;;;1999.90;999.90;;;13.30;99.90;;;;;;4967746;28;20050;-71
2023/03/30 09:13:38;;;;;;;1999.90;999.90;;;13.30;99.90;;;;;;4983114;28;20509;-71
2023/03/30 09:16:32;;;;;;;1999.90;999.90;;;13.20;99.90;;;;;;4986575;28;20069;-71
2023/03/30 09:19:28;;;;;;;1999.90;999.90;;;13.30;99.90;;;;;;4988721;28;20149;-71
2023/03/30 09:22:13;;;;;;;1999.90;999.90;;;13.40;99.90;;;;;;4987834;28;20081;-70
2023/03/30 09:24:39;;;;;;;1999.90;999.90;;;13.50;99.90;;;;;;4986094;28;20050;-71
2023/03/30 09:27:11;;;;;;;1999.90;999.90;;;13.50;99.90;;;;;;4987193;28;20056;-70
2023/03/30 09:29:45;;;;;;;1999.90;999.90;;;13.60;99.90;;;;;;4986758;28;20659;-71
2023/03/30 09:32:39;;;;;;;1999.90;999.90;;;13.80;99.90;;;;;;4984339;28;20529;-71
2023/03/30 09:35:17;;;;;;;1999.90;999.90;;;13.90;99.90;;;;;;4971028;28;20092;-71
2023/03/30 09:37:43;;;;;;;1999.90;999.90;;;13.80;99.90;;;;;;4986665;28;20489;-71
2023/03/30 09:40:51;;;;;;;1999.90;999.90;;;13.70;99.90;;;;;;5000649;28;20034;-71
2023/03/30 09:43:32;;;;;;;1999.90;999.90;;;13.50;99.90;;;;;;4983132;28;20056;-71
2023/03/30 09:46:03;;;;;;;1999.90;999.90;;;13.50;99.90;;;;;;5056927;28;20052;-71
2023/03/30 09:48:40;;;;;;;1999.90;999.90;;;13.50;99.90;;;;;;5063134;28;20036;-70
2023/03/30 09:51:18;;;;;;;1999.90;999.90;;;13.40;99.90;;;;;;5073136;28;20443;-69
2023/03/30 09:53:46;;;;;;;1999.90;999.90;;;13.30;99.90;;;;;;5062886;28;20152;-69
2023/03/30 09:56:38;;;;;;;1999.90;999.90;;;13.20;99.90;;;;;;5065680;28;20071;-69
2023/03/30 09:59:35;;;;;;;1999.90;999.90;;;13.10;99.90;;;;;;5059860;28;20040;-68
2023/03/30 10:02:18;;;;;;;1999.90;999.90;;;13.00;99.90;;;;;;4970073;28;20113;-71
2023/03/30 10:04:52;;;;;;;1999.90;999.90;;;13.00;99.90;;;;;;4981267;28;20621;-71
2023/03/30 10:07:27;;;;;;;1999.90;999.90;;;13.00;99.90;;;;;;4968829;28;20430;-71
2023/03/30 10:09:54;;;;;;;1999.90;999.90;;;13.00;99.90;;;;;;4995978;28;20453;-72
2023/03/30 10:12:23;;;;;;;1999.90;999.90;;;13.10;99.90;;;;;;4963362;28;20602;-69
2023/03/30 10:14:54;;;;;;;1999.90;999.90;;;13.10;99.90;;;;;;4951974;28;20041;-69
2023/03/30 10:17:23;;;;;;;1999.90;999.90;;;13.20;99.90;;;;;;4967860;28;20514;-68
2023/03/30 10:19:52;;;;;;;1999.90;999.90;;;13.20;99.90;;;;;;4966367;28;20046;-69
2023/03/30 10:26:00;;;;;;;1999.90;999.90;;;13.10;99.90;;;;;;4966170;28;20054;-69
2023/03/30 10:28:26;;;;;;;1999.90;999.90;;;13.00;99.90;;;;;;4985201;28;20180;-69
2023/03/30 10:30:56;;;;;;;1999.90;999.90;;;12.90;99.90;;;;;;4967109;28;20049;-69
2023/03/30 10:33:22;;;;;;;1999.90;999.90;;;12.90;99.90;;;;;;4965354;28;20050;-69
2023/03/30 10:35:52;;;;;;;1999.90;999.90;;;12.90;99.90;;;;;;4982998;28;20050;-69
2023/03/30 10:38:19;;;;;;;1999.90;999.90;;;13.00;99.90;;;;;;5009241;28;20119;-69
2023/03/30 10:40:46;;;;;;;1999.90;999.90;;;13.10;99.90;;;;;;5050091;28;20040;-69
2023/03/30 10:43:16;;;;;;;1999.90;999.90;;;13.10;99.90;;;;;;5066889;28;20129;-69
2023/03/30 10:45:51;;;;;;;1999.90;999.90;;;13.20;99.90;;;;;;5065819;28;20437;-69
2023/03/30 10:48:25;;;;;;;1999.90;999.90;;;13.20;99.90;;;;;;5064859;28;20039;-69
2023/03/30 10:51:12;;;;;;;1999.90;999.90;;;13.20;99.90;;;;;;5065641;28;20097;-69
2023/03/30 10:53:56;;;;;;;1999.90;999.90;;;13.20;99.90;;;;;;5063701;28;20044;-69
2023/03/30 10:56:36;;;;;;;1999.90;999.90;;;13.20;99.90;;;;;;5044123;28;20036;-69
2023/03/30 10:59:08;;;;;;;1999.90;999.90;;;13.20;99.90;;;;;;5080988;28;20044;-69
2023/03/30 11:02:00;;;;;;;1999.90;999.90;;;13.40;99.90;;;;;;5064273;28;20033;-69
2023/03/30 11:04:43;;;;;;;1999.90;999.90;;;13.40;99.90;;;;;;5061613;28;20380;-69
2023/03/30 11:07:31;;;;;;;1999.90;999.90;;;13.50;99.90;;;;;;5064023;28;20044;-69
2023/03/30 11:10:04;;;;;;;1999.90;999.90;;;13.60;99.90;;;;;;5065354;28;20042;-69
2023/03/30 11:12:38;;;;;;;1999.90;999.90;;;13.70;99.90;;;;;;5049134;28;20936;-69
2023/03/30 11:15:30;;;;;;;1999.90;999.90;;;13.80;99.90;;;;;;5064967;28;20036;-69
2023/03/30 11:18:26;;;;;;;1999.90;999.90;;;13.90;99.90;;;;;;5017825;28;20409;-69
2023/03/30 11:20:56;;;;;;;1999.90;999.90;;;13.90;99.90;;;;;;5063546;28;20067;-69
2023/03/30 11:23:58;;;;;;;1999.90;999.90;;;14.00;99.90;;;;;;5063428;28;20080;-69
2023/03/30 11:26:47;;;;;;;1999.90;999.90;;;14.00;99.90;;;;;;5063947;28;20040;-70
2023/03/30 11:29:47;;;;;;;1999.90;999.90;;;14.00;99.90;;;;;;5061861;28;20423;-69
2023/03/30 11:32:41;;;;;;;1999.90;999.90;;;14.00;99.90;;;;;;5065171;28;20048;-69
2023/03/30 11:35:25;;;;;;;1999.90;999.90;;;14.10;99.90;;;;;;5047120;28;20408;-70
2023/03/30 11:38:15;;;;;;;1999.90;999.90;;;14.20;99.90;;;;;;5063725;28;20040;-69
2023/03/30 11:40:45;;;;;;;1999.90;999.90;;;14.40;99.90;;;;;;5064325;28;20047;-69
2023/03/30 11:43:16;;;;;;;1999.90;999.90;;;14.60;99.90;;;;;;5065063;28;20048;-69
2023/03/30 11:46:17;;;;;;;1999.90;999.90;;;14.80;99.90;;;;;;5048849;28;20147;-69
2023/03/30 11:49:20;;;;;;;1999.90;999.90;;;14.80;99.90;;;;;;5063733;28;20949;-69
2023/03/30 11:51:56;;;;;;;1999.90;999.90;;;14.70;99.90;;;;;;5065147;28;20040;-69
2023/03/30 11:55:07;;;;;;;1999.90;999.90;;;14.70;99.90;;;;;;5062681;28;20044;-69
2023/03/30 11:57:53;;;;;;;1999.90;999.90;;;14.60;99.90;;;;;;5072758;28;20094;-70
2023/03/30 12:00:31;;;;;;;1999.90;999.90;;;14.40;99.90;;;;;;5060922;28;20095;-69
2023/03/30 12:03:35;;;;;;;1999.90;999.90;;;14.40;99.90;;;;;;5057282;28;20044;-70
2023/03/30 12:06:24;;;;;;;1999.90;999.90;;;14.50;99.90;;;;;;4956705;28;20094;-69
2023/03/30 12:09:18;;;;;;;1999.90;999.90;;;14.60;99.90;;;;;;4975007;28;20054;-69
2023/03/30 12:12:03;;;;;;;1999.90;999.90;;;14.80;99.90;;;;;;4951147;28;20080;-69
2023/03/30 12:14:57;;;;;;;1999.90;999.90;;;15.00;99.90;;;;;;4963613;28;20466;-69
2023/03/30 12:17:29;;;;;;;1999.90;999.90;;;15.10;99.90;;;;;;4961670;28;20086;-69
2023/03/30 12:20:39;;;;;;;1999.90;999.90;;;15.20;99.90;;;;;;4963009;28;20402;-70
2023/03/30 12:23:17;;;;;;;1999.90;999.90;;;15.30;99.90;;;;;;4943280;28;20057;-69
2023/03/30 12:26:00;;;;;;;1999.90;999.90;;;15.60;99.90;;;;;;4948472;28;20410;-69
2023/03/30 12:28:42;;;;;;;1999.90;999.90;;;15.60;99.90;;;;;;4972996;28;20097;-69
2023/03/30 12:31:07;;;;;;;1999.90;999.90;;;15.90;99.90;;;;;;4952315;28;20418;-69
2023/03/30 12:33:42;;;;;;;1999.90;999.90;;;15.90;99.90;;;;;;4943029;28;20042;-69
2023/03/30 12:36:29;;;;;;;1999.90;999.90;;;16.10;99.90;;;;;;4983318;28;20045;-69